• Join FlightAware (Why Join?)
  • Login
  • US Flag 
06:56AM EDT


 

Airport Tracker/Info


-or-


 

Live Flight TrackerFlight Track Log ✈ GPD95 ✈ 16-Sep-2013 ✈ KHTO - KACK

Flight Track Log - Related Links

Times and Time Zones

All times are in EDT time to prevent confusion due to time zone crossing. See the GPD95 flight status page for this flight to view local times or setup timezone preferences in your user account.

Time Position Orientation Groundspeed Altitude Reporting Facility
EDT Latitude Longitude Course Direction KTS MPH feet Rate Location/Type
05:44AM 41.4500 -72.9000 80° East 158 182 3,800  Level New York TRACON
05:46AM 41.4448 -72.8100 94° East  Level Estimated
05:47AM 41.4500 -72.7167 94° East 163 188 5,300  Level New York TRACON
05:48AM 41.4333 -72.6500 108° East 167 192 5,600 120 Climbing New York TRACON
05:49AM 40.9964 -71.9927 80° East  Level Estimated
05:49AM 41.4333 -72.5833 90° East 174 200 5,600  Level New York TRACON
05:49AM 41.4333 -72.5564 90° East 186 214 5,600  Level Boston Center
05:49AM 41.4333 -72.5508 90° East 186 214 5,600  Level Boston Center
05:50AM 41.4272 -72.4789 96° East 186 214 5,600  Level Boston Center
05:51AM 41.4272 -72.4125 90° East 186 214 5,600  Level Boston Center
05:53AM 41.4208 -72.3431 97° East 183 211 5,600  Level Boston Center
05:54AM 41.4144 -72.2714 97° East 188 216 5,600  Level Boston Center
05:55AM 41.4081 -72.2047 97° East 191 220 5,600  Level Boston Center
05:56AM 41.4081 -72.1383 90° East 186 214 5,600  Level Boston Center
05:57AM 41.4014 -72.0664 97° East 184 212 5,600  Level Boston Center
05:58AM 41.3972 -71.9972 95° East 188 216 5,600  Level Boston Center
05:59AM 41.3906 -71.9283 97° East 185 213 5,600  Level Boston Center
06:00AM 41.3881 -71.8592 93° East 188 216 5,600  Level Boston Center
06:01AM 41.3836 -71.7900 95° East 187 215 5,600  Level Boston Center
06:02AM 41.3769 -71.7181 97° East 184 212 5,600  Level Boston Center
06:03AM 41.3722 -71.6489 95° East 189 217 5,600  Level Boston Center
06:04AM 41.3697 -71.5772 93° East 189 217 5,600  Level Boston Center
06:05AM 41.3628 -71.5108 98° East 186 214 5,600  Level Boston Center
06:06AM 41.3581 -71.4417 95° East 186 214 5,600  Level Boston Center
06:07AM 41.3533 -71.3756 95° East 185 213 5,600  Level Boston Center
06:08AM 41.3486 -71.3064 95° East 185 213 5,600  Level Boston Center
06:10AM 41.3368 -71.1984 98° East  Level FlightAware Approximate
06:17AM 41.3014 -70.7920 95° East  Level FlightAware Approximate
06:18AM 41.2974 -70.7339 95° East  Level FlightAware Approximate
06:19AM 41.2934 -70.6757 95° East  Level FlightAware Approximate
06:20AM 41.2893 -70.6176 95° East  Level FlightAware Approximate
06:21AM 41.2852 -70.5595 95° East  Level FlightAware Approximate
06:22AM 41.2833 -70.5012 90° East  Level FlightAware Approximate
06:23AM 41.2833 -70.4428 90° East  Level FlightAware Approximate
06:24AM 41.2765 -70.3853 101° East  Level FlightAware Approximate
06:25AM 41.2683 -70.3280 101° East  Level FlightAware Approximate
06:26AM 41.2638 -70.2700 95° East  Level FlightAware Approximate
06:27AM 41.2602 -70.2118 95° East  Level FlightAware Approximate
06:28AM 41.2565 -70.1536 95° East  Level FlightAware Approximate
06:29AM 41.2529 -70.0955 95° East  Level FlightAware Approximate
06:30AM 41.2530 -70.0599 95° East  Level Estimated
06:31AM 41.2530 -70.0599 95° East  Level Estimated
06:32AM 41.2530 -70.0599 95° East  Level Estimated
06:33AM 41.2530 -70.0599 95° East  Level Estimated
06:34AM 41.2530 -70.0599 95° East  Level Estimated
06:35AM 41.2530 -70.0599 95° East  Level Estimated